PAKI

Kipnuk Airport

Airport
ICAO code
PAKI
IATA Code
KPN
Summary
ICAO Region
NAM
ICAO Territory
Location

, Alaska

Serving
Kipnuk
Elevation
11 ft
Coordinates
59° 55' 59" N , 164° 1' 50" W
Metar
PAKI 201456Z AUTO 13006KT 1/4SM FG OVC002 08/08 A3025 RMK AO2 SLP243 6//// T00780078 56006 PNO $

Runways

Designator Length Width Surface Rops
15/33 646 11 GRAVEL-G No/No

Airport map

Aerial View

SKYbrary Partners:

Safety knowledge contributed by: